SKSM

Simón Bolívar International Airport

Airport
ICAO code
SKSM
IATA Code
SMR
Summary
ICAO Region
CARSAM
ICAO Territory
Location

Santa Marta, Magdalena department

Serving
Santa Marta
Elevation
22 ft
Coordinates
11° 7' 2" N , 74° 13' 58" W
KCC
Metar
SKSM 222200Z 01012KT 9999 FEW020CB 33/25 Q1007 RMK CB/SW

The Simón Bolívar International Airport is known locally as Santa Marta Airport. The airport is located 14km south of Santa Marta, the capital of the Magdalena Department, 18km north of the municipality of Ciénaga in Colombia.

Climatology

Tropical savanna climate (Köppen climate classification Aw)

Runways

Designator Length Width Surface Rops
1/19 1700 30 ASP Yes/Yes

Airport map

Aerial View

SKYbrary Partners:

Safety knowledge contributed by: